Everdell, Minnesota
Current Conditions -  °F | °C
As of 11:55 PM on Thursday 27 Nov 2014 (Local Time) from KBWP Reporting Station
Overcast Overcast  
Wind Chill: -6°   Ceiling: 5000
Heat Index: 10°   Visibility: 10mi
Dew Point:   Wind: 15mph
Humidity: 79%   Direction: 140°SE
Pressure: 30.09"   Gusts: 20mph
Location:  46.3422°N, 96.4653°W
Report Text: KBWP 280555Z AUTO 14013G17KT 10SM SCT006 OVC050 M12/M15 A3009 RMK AO1
Loading
Personal Weather Stations






























Interactive Weather Map New forecast layout! Learn more

10-Day Weather Forecast

Advertisements
Track Severe Weather on mobile